Eglinton, United Kingdom
Current Conditions -  °F | °C
As of 3:20 PM on Monday 24 Nov 2014 (Local Time) from EGAE Reporting Station
Broken Clouds Broken Clouds  
Wind Chill: 43°   Ceiling: 3100
Heat Index: 48°   Visibility: 6mi
Dew Point: 43°   Wind: 13mph
Humidity: 82%   Direction: 220°SW
Pressure: 30.18"   Gusts: NA
Location:  55.02°N, 7.18°W
Report Text: EGAE 241520Z 22011KT 9999 FEW023 BKN031 09/06 Q1022
Loading
Personal Weather Stations






























Interactive Weather Map New forecast layout! Learn more

10-Day Weather Forecast

Advertisements
Track Severe Weather on mobile